sensor_id;sensor_type;location;lat;lon;timestamp;pressure;altitude;pressure_sealevel;temperature;humidity
11985;BME280;6052;53.246;10.368;2023-06-19T00:00:18;100707.50;;;26.45;56.81
11985;BME280;6052;53.246;10.368;2023-06-19T00:02:48;100706.25;;;26.42;56.23
11985;BME280;6052;53.246;10.368;2023-06-19T00:05:18;100706.94;;;26.51;56.12
11985;BME280;6052;53.246;10.368;2023-06-19T00:07:49;100709.00;;;26.42;56.31
11985;BME280;6052;53.246;10.368;2023-06-19T00:10:23;100723.59;;;26.55;56.09
11985;BME280;6052;53.246;10.368;2023-06-19T00:12:53;100717.75;;;26.56;55.97
11985;BME280;6052;53.246;10.368;2023-06-19T00:15:22;100713.84;;;26.57;56.49
11985;BME280;6052;53.246;10.368;2023-06-19T00:17:51;100703.72;;;26.49;56.29
11985;BME280;6052;53.246;10.368;2023-06-19T00:20:22;100706.56;;;26.53;56.08
11985;BME280;6052;53.246;10.368;2023-06-19T00:22:52;100701.06;;;26.41;56.34
11985;BME280;6052;53.246;10.368;2023-06-19T00:25:24;100703.16;;;26.44;56.33
11985;BME280;6052;53.246;10.368;2023-06-19T00:27:54;100704.38;;;26.34;57.21
11985;BME280;6052;53.246;10.368;2023-06-19T00:30:23;100708.28;;;26.45;57.07
11985;BME280;6052;53.246;10.368;2023-06-19T00:32:53;100702.84;;;26.13;57.86
11985;BME280;6052;53.246;10.368;2023-06-19T00:35:23;100703.94;;;26.44;56.74
11985;BME280;6052;53.246;10.368;2023-06-19T00:37:54;100709.56;;;26.48;56.53
11985;BME280;6052;53.246;10.368;2023-06-19T00:40:30;100705.19;;;26.35;56.56
11985;BME280;6052;53.246;10.368;2023-06-19T00:43:00;100704.63;;;26.41;56.13
11985;BME280;6052;53.246;10.368;2023-06-19T00:45:30;100696.22;;;26.26;56.92
11985;BME280;6052;53.246;10.368;2023-06-19T00:48:00;100697.28;;;26.45;56.34
11985;BME280;6052;53.246;10.368;2023-06-19T00:50:29;100697.97;;;26.42;56.33
11985;BME280;6052;53.246;10.368;2023-06-19T00:53:00;100688.22;;;26.45;56.65
11985;BME280;6052;53.246;10.368;2023-06-19T00:55:37;100685.44;;;26.33;56.67
11985;BME280;6052;53.246;10.368;2023-06-19T00:58:06;100688.28;;;26.24;57.01
11985;BME280;6052;53.246;10.368;2023-06-19T01:00:36;100685.88;;;26.23;56.97
11985;BME280;6052;53.246;10.368;2023-06-19T01:03:05;100680.59;;;26.18;56.75
11985;BME280;6052;53.246;10.368;2023-06-19T01:05:35;100672.66;;;26.16;56.82
11985;BME280;6052;53.246;10.368;2023-06-19T01:08:26;100672.94;;;26.23;56.91
11985;BME280;6052;53.246;10.368;2023-06-19T01:11:03;100671.31;;;26.22;57.26
11985;BME280;6052;53.246;10.368;2023-06-19T01:13:55;100656.97;;;26.17;57.41
11985;BME280;6052;53.246;10.368;2023-06-19T01:16:27;100651.81;;;26.15;57.31
11985;BME280;6052;53.246;10.368;2023-06-19T01:18:57;100652.13;;;26.14;56.87
11985;BME280;6052;53.246;10.368;2023-06-19T01:21:27;100644.94;;;26.33;56.70
11985;BME280;6052;53.246;10.368;2023-06-19T01:23:59;100642.31;;;26.25;56.82
11985;BME280;6052;53.246;10.368;2023-06-19T01:26:28;100632.97;;;26.05;57.73
11985;BME280;6052;53.246;10.368;2023-06-19T01:28:58;100636.88;;;26.16;56.86
11985;BME280;6052;53.246;10.368;2023-06-19T01:31:32;100636.44;;;26.26;56.90
11985;BME280;6052;53.246;10.368;2023-06-19T01:34:04;100629.63;;;26.00;57.63
11985;BME280;6052;53.246;10.368;2023-06-19T01:36:35;100635.53;;;26.22;56.82
11985;BME280;6052;53.246;10.368;2023-06-19T01:39:08;100640.59;;;26.32;57.08
11985;BME280;6052;53.246;10.368;2023-06-19T01:41:41;100642.53;;;26.32;56.49
11985;BME280;6052;53.246;10.368;2023-06-19T01:44:11;100634.72;;;26.22;56.82
11985;BME280;6052;53.246;10.368;2023-06-19T01:46:40;100631.97;;;26.10;57.33
11985;BME280;6052;53.246;10.368;2023-06-19T01:49:10;100631.16;;;26.09;57.02
11985;BME280;6052;53.246;10.368;2023-06-19T01:51:39;100636.66;;;26.09;57.03
11985;BME280;6052;53.246;10.368;2023-06-19T01:54:11;100629.66;;;26.12;56.92
11985;BME280;6052;53.246;10.368;2023-06-19T01:56:41;100622.22;;;26.12;57.46
11985;BME280;6052;53.246;10.368;2023-06-19T01:59:10;100619.19;;;25.93;57.82
11985;BME280;6052;53.246;10.368;2023-06-19T02:01:39;100616.47;;;26.05;57.05
11985;BME280;6052;53.246;10.368;2023-06-19T02:04:09;100611.66;;;26.02;57.44
11985;BME280;6052;53.246;10.368;2023-06-19T02:06:38;100617.00;;;25.99;57.39
11985;BME280;6052;53.246;10.368;2023-06-19T02:09:08;100612.22;;;25.96;57.36
11985;BME280;6052;53.246;10.368;2023-06-19T02:11:40;100619.44;;;26.00;57.27
11985;BME280;6052;53.246;10.368;2023-06-19T02:14:09;100613.88;;;25.88;57.23
11985;BME280;6052;53.246;10.368;2023-06-19T02:16:39;100612.53;;;25.94;57.38
11985;BME280;6052;53.246;10.368;2023-06-19T02:19:10;100618.84;;;25.95;57.60
11985;BME280;6052;53.246;10.368;2023-06-19T02:21:40;100610.66;;;25.86;58.12
11985;BME280;6052;53.246;10.368;2023-06-19T02:24:09;100609.28;;;25.80;57.67
11985;BME280;6052;53.246;10.368;2023-06-19T02:26:41;100606.19;;;25.82;58.21
11985;BME280;6052;53.246;10.368;2023-06-19T02:29:10;100609.16;;;25.89;58.26
11985;BME280;6052;53.246;10.368;2023-06-19T02:31:40;100607.66;;;25.79;58.12
11985;BME280;6052;53.246;10.368;2023-06-19T02:34:09;100606.75;;;25.87;57.70
11985;BME280;6052;53.246;10.368;2023-06-19T02:36:39;100614.09;;;25.83;58.44
11985;BME280;6052;53.246;10.368;2023-06-19T02:39:09;100619.13;;;25.81;58.48
11985;BME280;6052;53.246;10.368;2023-06-19T02:41:42;100618.66;;;25.79;58.67
11985;BME280;6052;53.246;10.368;2023-06-19T02:44:13;100618.88;;;25.74;59.03
11985;BME280;6052;53.246;10.368;2023-06-19T02:46:43;100617.97;;;25.82;58.69
11985;BME280;6052;53.246;10.368;2023-06-19T02:49:12;100614.72;;;25.36;60.42
11985;BME280;6052;53.246;10.368;2023-06-19T02:51:41;100603.97;;;25.63;59.00
11985;BME280;6052;53.246;10.368;2023-06-19T02:54:11;100608.75;;;25.66;58.81
11985;BME280;6052;53.246;10.368;2023-06-19T02:56:43;100601.22;;;25.63;58.81
11985;BME280;6052;53.246;10.368;2023-06-19T02:59:12;100598.47;;;25.63;58.36
11985;BME280;6052;53.246;10.368;2023-06-19T03:01:42;100600.59;;;25.58;58.73
11985;BME280;6052;53.246;10.368;2023-06-19T03:04:11;100601.53;;;25.62;57.96
11985;BME280;6052;53.246;10.368;2023-06-19T03:06:40;100599.59;;;25.62;58.10
11985;BME280;6052;53.246;10.368;2023-06-19T03:09:10;100594.59;;;25.76;57.51
11985;BME280;6052;53.246;10.368;2023-06-19T03:11:44;100599.78;;;25.57;58.25
11985;BME280;6052;53.246;10.368;2023-06-19T03:14:13;100600.19;;;25.68;58.09
11985;BME280;6052;53.246;10.368;2023-06-19T03:16:43;100604.34;;;25.53;57.96
11985;BME280;6052;53.246;10.368;2023-06-19T03:19:12;100598.78;;;25.62;57.73
11985;BME280;6052;53.246;10.368;2023-06-19T03:21:42;100594.06;;;25.62;57.84
11985;BME280;6052;53.246;10.368;2023-06-19T03:24:11;100592.97;;;25.63;58.18
11985;BME280;6052;53.246;10.368;2023-06-19T03:26:41;100589.81;;;25.53;57.77
11985;BME280;6052;53.246;10.368;2023-06-19T03:29:12;100594.91;;;25.63;58.04
11985;BME280;6052;53.246;10.368;2023-06-19T03:31:42;100597.75;;;25.66;57.37
11985;BME280;6052;53.246;10.368;2023-06-19T03:34:11;100575.25;;;25.52;58.39
11985;BME280;6052;53.246;10.368;2023-06-19T03:36:41;100579.06;;;25.60;57.83
11985;BME280;6052;53.246;10.368;2023-06-19T03:39:11;100570.81;;;25.60;58.08
11985;BME280;6052;53.246;10.368;2023-06-19T03:41:40;100565.47;;;25.63;57.86
11985;BME280;6052;53.246;10.368;2023-06-19T03:44:09;100577.56;;;25.62;57.24
11985;BME280;6052;53.246;10.368;2023-06-19T03:46:41;100577.00;;;25.57;57.18
11985;BME280;6052;53.246;10.368;2023-06-19T03:49:13;100568.81;;;25.48;57.88
11985;BME280;6052;53.246;10.368;2023-06-19T03:51:42;100568.72;;;25.45;58.01
11985;BME280;6052;53.246;10.368;2023-06-19T03:54:11;100571.78;;;25.43;57.84
11985;BME280;6052;53.246;10.368;2023-06-19T03:56:41;100567.22;;;25.47;58.03
11985;BME280;6052;53.246;10.368;2023-06-19T03:59:10;100557.50;;;25.50;57.91
11985;BME280;6052;53.246;10.368;2023-06-19T04:01:42;100563.09;;;25.41;57.76
11985;BME280;6052;53.246;10.368;2023-06-19T04:04:12;100554.84;;;25.41;57.41
11985;BME280;6052;53.246;10.368;2023-06-19T04:06:41;100558.25;;;25.38;57.90
11985;BME280;6052;53.246;10.368;2023-06-19T04:09:13;100562.84;;;25.34;58.10
11985;BME280;6052;53.246;10.368;2023-06-19T04:11:42;100559.75;;;25.15;58.28
11985;BME280;6052;53.246;10.368;2023-06-19T04:14:12;100572.25;;;25.25;58.45
11985;BME280;6052;53.246;10.368;2023-06-19T04:16:44;100567.78;;;25.20;58.90
11985;BME280;6052;53.246;10.368;2023-06-19T04:19:13;100574.97;;;25.33;59.05
11985;BME280;6052;53.246;10.368;2023-06-19T04:21:43;100568.66;;;25.33;59.02
11985;BME280;6052;53.246;10.368;2023-06-19T04:24:12;100572.09;;;25.30;58.68
11985;BME280;6052;53.246;10.368;2023-06-19T04:26:41;100580.94;;;25.35;58.48
11985;BME280;6052;53.246;10.368;2023-06-19T04:29:11;100578.09;;;25.44;58.22
11985;BME280;6052;53.246;10.368;2023-06-19T04:31:46;100577.16;;;25.40;58.95
11985;BME280;6052;53.246;10.368;2023-06-19T04:34:16;100566.28;;;25.43;58.43
11985;BME280;6052;53.246;10.368;2023-06-19T04:36:47;100564.13;;;25.49;58.30
11985;BME280;6052;53.246;10.368;2023-06-19T04:39:17;100572.38;;;25.37;58.35
11985;BME280;6052;53.246;10.368;2023-06-19T04:41:47;100566.66;;;25.42;57.95
11985;BME280;6052;53.246;10.368;2023-06-19T04:44:17;100560.88;;;25.35;58.03
11985;BME280;6052;53.246;10.368;2023-06-19T04:46:48;100561.47;;;25.40;58.05
11985;BME280;6052;53.246;10.368;2023-06-19T04:49:28;100566.03;;;25.36;58.74
11985;BME280;6052;53.246;10.368;2023-06-19T04:51:59;100556.09;;;25.23;58.76
11985;BME280;6052;53.246;10.368;2023-06-19T04:54:29;100570.59;;;25.32;58.93
11985;BME280;6052;53.246;10.368;2023-06-19T04:56:59;100565.59;;;25.14;58.59
11985;BME280;6052;53.246;10.368;2023-06-19T04:59:28;100568.56;;;25.21;58.78
11985;BME280;6052;53.246;10.368;2023-06-19T05:02:01;100575.00;;;25.25;58.83
11985;BME280;6052;53.246;10.368;2023-06-19T05:04:31;100568.34;;;25.34;59.17
11985;BME280;6052;53.246;10.368;2023-06-19T05:07:01;100565.84;;;25.41;59.08
11985;BME280;6052;53.246;10.368;2023-06-19T05:09:30;100561.38;;;25.49;58.51
11985;BME280;6052;53.246;10.368;2023-06-19T05:12:00;100567.31;;;25.39;59.49
11985;BME280;6052;53.246;10.368;2023-06-19T05:14:30;100559.50;;;25.29;59.32
11985;BME280;6052;53.246;10.368;2023-06-19T05:17:02;100564.44;;;25.35;59.16
11985;BME280;6052;53.246;10.368;2023-06-19T05:19:31;100560.66;;;25.19;60.21
11985;BME280;6052;53.246;10.368;2023-06-19T05:22:01;100570.81;;;25.27;60.07
11985;BME280;6052;53.246;10.368;2023-06-19T05:24:30;100564.59;;;24.98;60.75
11985;BME280;6052;53.246;10.368;2023-06-19T05:27:00;100569.16;;;24.94;61.57
11985;BME280;6052;53.246;10.368;2023-06-19T05:29:30;100562.09;;;25.05;60.26
11985;BME280;6052;53.246;10.368;2023-06-19T05:32:03;100565.50;;;25.02;60.31
11985;BME280;6052;53.246;10.368;2023-06-19T05:34:32;100573.69;;;25.10;60.16
11985;BME280;6052;53.246;10.368;2023-06-19T05:37:02;100565.09;;;25.12;60.22
11985;BME280;6052;53.246;10.368;2023-06-19T05:39:31;100567.59;;;24.64;61.19
11985;BME280;6052;53.246;10.368;2023-06-19T05:42:01;100578.38;;;24.89;60.45
11985;BME280;6052;53.246;10.368;2023-06-19T05:44:30;100580.53;;;24.84;61.81
11985;BME280;6052;53.246;10.368;2023-06-19T05:47:03;100585.00;;;24.88;61.32
11985;BME280;6052;53.246;10.368;2023-06-19T05:49:33;100593.19;;;25.17;60.86
11985;BME280;6052;53.246;10.368;2023-06-19T05:52:03;100593.59;;;25.07;61.05
11985;BME280;6052;53.246;10.368;2023-06-19T05:54:33;100595.41;;;25.24;60.73
11985;BME280;6052;53.246;10.368;2023-06-19T05:57:02;100606.72;;;25.22;60.87
11985;BME280;6052;53.246;10.368;2023-06-19T05:59:32;100606.94;;;25.17;61.48
11985;BME280;6052;53.246;10.368;2023-06-19T06:02:05;100626.09;;;25.46;60.29
11985;BME280;6052;53.246;10.368;2023-06-19T06:04:34;100613.03;;;25.43;60.14
11985;BME280;6052;53.246;10.368;2023-06-19T06:07:05;100611.25;;;25.27;61.10
11985;BME280;6052;53.246;10.368;2023-06-19T06:09:35;100612.81;;;25.07;62.86
11985;BME280;6052;53.246;10.368;2023-06-19T06:12:05;100614.56;;;24.91;62.95
11985;BME280;6052;53.246;10.368;2023-06-19T06:14:35;100616.03;;;24.89;63.42
11985;BME280;6052;53.246;10.368;2023-06-19T06:17:07;100614.16;;;25.01;63.48
11985;BME280;6052;53.246;10.368;2023-06-19T06:19:38;100614.81;;;24.98;63.29
11985;BME280;6052;53.246;10.368;2023-06-19T06:22:07;100615.63;;;24.78;63.26
11985;BME280;6052;53.246;10.368;2023-06-19T06:24:37;100627.56;;;24.82;63.46
11985;BME280;6052;53.246;10.368;2023-06-19T06:27:06;100630.63;;;24.81;63.66
11985;BME280;6052;53.246;10.368;2023-06-19T06:29:36;100623.59;;;24.71;63.31
11985;BME280;6052;53.246;10.368;2023-06-19T06:32:09;100620.78;;;24.80;64.19
11985;BME280;6052;53.246;10.368;2023-06-19T06:34:38;100630.47;;;24.48;64.31
11985;BME280;6052;53.246;10.368;2023-06-19T06:37:08;100625.09;;;24.60;64.27
11985;BME280;6052;53.246;10.368;2023-06-19T06:39:37;100630.56;;;24.69;64.40
11985;BME280;6052;53.246;10.368;2023-06-19T06:42:06;100631.88;;;24.54;64.70
11985;BME280;6052;53.246;10.368;2023-06-19T06:44:36;100634.34;;;24.47;64.91
11985;BME280;6052;53.246;10.368;2023-06-19T06:47:08;100627.81;;;24.69;63.91
11985;BME280;6052;53.246;10.368;2023-06-19T06:49:37;100637.97;;;24.31;65.86
11985;BME280;6052;53.246;10.368;2023-06-19T06:52:07;100631.75;;;24.51;64.95
11985;BME280;6052;53.246;10.368;2023-06-19T06:54:36;100622.22;;;24.48;64.61
11985;BME280;6052;53.246;10.368;2023-06-19T06:57:06;100623.81;;;24.49;65.90
11985;BME280;6052;53.246;10.368;2023-06-19T06:59:35;100627.41;;;24.41;66.61
11985;BME280;6052;53.246;10.368;2023-06-19T07:02:08;100628.47;;;24.66;66.80
11985;BME280;6052;53.246;10.368;2023-06-19T07:04:37;100627.03;;;24.22;67.14
11985;BME280;6052;53.246;10.368;2023-06-19T07:07:06;100619.22;;;24.33;67.49
11985;BME280;6052;53.246;10.368;2023-06-19T07:09:36;100605.00;;;24.39;67.19
11985;BME280;6052;53.246;10.368;2023-06-19T07:12:06;100605.44;;;24.41;67.04
11985;BME280;6052;53.246;10.368;2023-06-19T07:14:36;100610.16;;;24.03;67.69
11985;BME280;6052;53.246;10.368;2023-06-19T07:17:08;100606.25;;;24.13;66.62
11985;BME280;6052;53.246;10.368;2023-06-19T07:19:37;100610.75;;;24.09;66.95
11985;BME280;6052;53.246;10.368;2023-06-19T07:22:07;100604.09;;;24.27;67.10
11985;BME280;6052;53.246;10.368;2023-06-19T07:24:36;100605.19;;;23.71;68.96
11985;BME280;6052;53.246;10.368;2023-06-19T07:27:06;100600.38;;;23.68;68.50
11985;BME280;6052;53.246;10.368;2023-06-19T07:29:36;100610.50;;;23.76;68.63
11985;BME280;6052;53.246;10.368;2023-06-19T07:32:08;100615.03;;;23.89;68.36
11985;BME280;6052;53.246;10.368;2023-06-19T07:34:37;100609.72;;;23.67;68.41
11985;BME280;6052;53.246;10.368;2023-06-19T07:37:07;100608.25;;;23.95;69.50
11985;BME280;6052;53.246;10.368;2023-06-19T07:39:36;100607.75;;;23.85;68.94
11985;BME280;6052;53.246;10.368;2023-06-19T07:42:06;100617.09;;;23.92;68.79
11985;BME280;6052;53.246;10.368;2023-06-19T07:44:37;100613.88;;;23.99;70.03
11985;BME280;6052;53.246;10.368;2023-06-19T07:47:09;100615.53;;;23.74;68.86
11985;BME280;6052;53.246;10.368;2023-06-19T07:49:40;100618.88;;;23.88;68.73
11985;BME280;6052;53.246;10.368;2023-06-19T07:52:09;100612.41;;;24.01;68.92
11985;BME280;6052;53.246;10.368;2023-06-19T07:54:48;100620.16;;;23.99;69.17
11985;BME280;6052;53.246;10.368;2023-06-19T07:57:17;100615.34;;;23.79;69.37
11985;BME280;6052;53.246;10.368;2023-06-19T07:59:47;100618.06;;;24.05;69.66
11985;BME280;6052;53.246;10.368;2023-06-19T08:02:20;100615.16;;;24.10;69.40
11985;BME280;6052;53.246;10.368;2023-06-19T08:04:49;100608.78;;;24.18;69.14
11985;BME280;6052;53.246;10.368;2023-06-19T08:07:19;100603.56;;;23.96;69.68
11985;BME280;6052;53.246;10.368;2023-06-19T08:09:48;100610.66;;;23.80;69.92
11985;BME280;6052;53.246;10.368;2023-06-19T08:12:33;100602.25;;;24.02;70.48
11985;BME280;6052;53.246;10.368;2023-06-19T08:15:03;100614.00;;;24.02;69.95
11985;BME280;6052;53.246;10.368;2023-06-19T08:17:35;100610.75;;;24.09;70.82
11985;BME280;6052;53.246;10.368;2023-06-19T08:20:06;100611.13;;;24.07;70.16
11985;BME280;6052;53.246;10.368;2023-06-19T08:22:36;100612.63;;;23.79;71.76
11985;BME280;6052;53.246;10.368;2023-06-19T08:25:06;100613.53;;;24.00;71.54
11985;BME280;6052;53.246;10.368;2023-06-19T08:27:35;100612.63;;;24.25;70.61
11985;BME280;6052;53.246;10.368;2023-06-19T08:30:07;100607.38;;;24.12;71.45
11985;BME280;6052;53.246;10.368;2023-06-19T08:32:39;100595.38;;;24.25;71.60
11985;BME280;6052;53.246;10.368;2023-06-19T08:35:08;100601.94;;;24.03;71.32
11985;BME280;6052;53.246;10.368;2023-06-19T08:37:38;100598.31;;;24.20;71.36
11985;BME280;6052;53.246;10.368;2023-06-19T08:40:08;100600.00;;;23.95;72.15
11985;BME280;6052;53.246;10.368;2023-06-19T08:42:38;100607.50;;;24.15;71.97
11985;BME280;6052;53.246;10.368;2023-06-19T08:45:10;100612.34;;;24.18;72.41
11985;BME280;6052;53.246;10.368;2023-06-19T08:47:42;100619.28;;;24.24;71.46
11985;BME280;6052;53.246;10.368;2023-06-19T08:50:11;100621.56;;;24.14;71.89
11985;BME280;6052;53.246;10.368;2023-06-19T08:52:41;100612.78;;;24.29;72.49
11985;BME280;6052;53.246;10.368;2023-06-19T08:55:13;100623.63;;;24.25;72.58
11985;BME280;6052;53.246;10.368;2023-06-19T08:57:43;100627.53;;;24.53;72.63
11985;BME280;6052;53.246;10.368;2023-06-19T09:00:22;100617.00;;;24.55;72.40
11985;BME280;6052;53.246;10.368;2023-06-19T09:02:59;100624.06;;;24.73;72.19
11985;BME280;6052;53.246;10.368;2023-06-19T09:05:41;100619.22;;;24.70;71.64
11985;BME280;6052;53.246;10.368;2023-06-19T09:08:18;100625.91;;;24.61;71.66
11985;BME280;6052;53.246;10.368;2023-06-19T09:10:58;100626.91;;;24.85;71.37
11985;BME280;6052;53.246;10.368;2023-06-19T09:13:29;100620.66;;;25.17;72.01
11985;BME280;6052;53.246;10.368;2023-06-19T09:16:01;100611.25;;;25.27;70.77
11985;BME280;6052;53.246;10.368;2023-06-19T09:18:43;100617.47;;;25.15;70.91
11985;BME280;6052;53.246;10.368;2023-06-19T09:21:17;100616.41;;;25.08;70.32
11985;BME280;6052;53.246;10.368;2023-06-19T09:23:48;100614.06;;;25.39;69.42
11985;BME280;6052;53.246;10.368;2023-06-19T09:26:19;100621.56;;;25.50;69.94
11985;BME280;6052;53.246;10.368;2023-06-19T09:28:48;100617.16;;;26.02;69.83
11985;BME280;6052;53.246;10.368;2023-06-19T09:31:18;100619.13;;;25.81;68.85
11985;BME280;6052;53.246;10.368;2023-06-19T09:33:50;100616.63;;;25.88;68.04
11985;BME280;6052;53.246;10.368;2023-06-19T09:36:20;100615.69;;;26.05;68.71
11985;BME280;6052;53.246;10.368;2023-06-19T09:38:50;100620.50;;;26.32;68.16
11985;BME280;6052;53.246;10.368;2023-06-19T09:41:23;100610.63;;;26.43;68.69
11985;BME280;6052;53.246;10.368;2023-06-19T09:43:55;100611.13;;;26.57;69.03
11985;BME280;6052;53.246;10.368;2023-06-19T09:46:29;100610.56;;;26.63;68.45
11985;BME280;6052;53.246;10.368;2023-06-19T09:49:04;100615.38;;;26.66;67.38
11985;BME280;6052;53.246;10.368;2023-06-19T09:51:37;100610.38;;;26.96;66.97
11985;BME280;6052;53.246;10.368;2023-06-19T09:54:10;100617.81;;;27.07;66.84
11985;BME280;6052;53.246;10.368;2023-06-19T09:56:40;100609.66;;;27.11;67.24
11985;BME280;6052;53.246;10.368;2023-06-19T09:59:09;100601.47;;;27.14;67.30
11985;BME280;6052;53.246;10.368;2023-06-19T10:01:40;100613.66;;;27.13;67.11
11985;BME280;6052;53.246;10.368;2023-06-19T10:04:13;100606.31;;;27.17;66.60
11985;BME280;6052;53.246;10.368;2023-06-19T10:06:44;100596.66;;;27.23;66.70
11985;BME280;6052;53.246;10.368;2023-06-19T10:09:14;100597.78;;;27.34;65.20
11985;BME280;6052;53.246;10.368;2023-06-19T10:11:46;100603.50;;;27.41;67.22
11985;BME280;6052;53.246;10.368;2023-06-19T10:14:18;100597.13;;;27.25;65.29
11985;BME280;6052;53.246;10.368;2023-06-19T10:16:48;100602.13;;;27.63;65.73
11985;BME280;6052;53.246;10.368;2023-06-19T10:19:21;100610.38;;;27.47;63.32
11985;BME280;6052;53.246;10.368;2023-06-19T10:21:52;100601.69;;;27.61;64.58
11985;BME280;6052;53.246;10.368;2023-06-19T10:24:25;100601.69;;;27.61;64.21
11985;BME280;6052;53.246;10.368;2023-06-19T10:26:56;100596.47;;;27.44;63.78
11985;BME280;6052;53.246;10.368;2023-06-19T10:29:38;100597.06;;;27.65;63.63
11985;BME280;6052;53.246;10.368;2023-06-19T10:32:25;100602.41;;;27.58;63.64
11985;BME280;6052;53.246;10.368;2023-06-19T10:34:57;100594.84;;;27.70;63.55
11985;BME280;6052;53.246;10.368;2023-06-19T10:37:32;100590.75;;;27.64;63.10
11985;BME280;6052;53.246;10.368;2023-06-19T10:40:02;100588.25;;;27.75;63.74
11985;BME280;6052;53.246;10.368;2023-06-19T10:42:34;100585.50;;;28.02;63.83
11985;BME280;6052;53.246;10.368;2023-06-19T10:45:06;100591.03;;;28.02;61.85
11985;BME280;6052;53.246;10.368;2023-06-19T10:47:37;100579.16;;;27.86;62.03
11985;BME280;6052;53.246;10.368;2023-06-19T10:50:13;100587.19;;;28.07;62.30
11985;BME280;6052;53.246;10.368;2023-06-19T10:52:43;100585.75;;;28.13;61.29
11985;BME280;6052;53.246;10.368;2023-06-19T10:55:14;100582.91;;;28.40;62.76
11985;BME280;6052;53.246;10.368;2023-06-19T10:57:44;100585.91;;;28.35;61.17
11985;BME280;6052;53.246;10.368;2023-06-19T11:00:22;100579.00;;;28.41;60.16
11985;BME280;6052;53.246;10.368;2023-06-19T11:02:52;100588.22;;;28.64;59.47
11985;BME280;6052;53.246;10.368;2023-06-19T11:05:26;100581.94;;;28.48;58.02
11985;BME280;6052;53.246;10.368;2023-06-19T11:07:58;100581.44;;;28.62;60.17
11985;BME280;6052;53.246;10.368;2023-06-19T11:10:29;100581.25;;;28.70;59.01
11985;BME280;6052;53.246;10.368;2023-06-19T11:12:59;100578.38;;;28.82;59.64
11985;BME280;6052;53.246;10.368;2023-06-19T11:15:29;100572.91;;;28.86;59.42
11985;BME280;6052;53.246;10.368;2023-06-19T11:18:00;100577.44;;;28.94;59.82
11985;BME280;6052;53.246;10.368;2023-06-19T11:20:43;100576.25;;;28.76;60.52
11985;BME280;6052;53.246;10.368;2023-06-19T11:23:13;100574.00;;;28.81;60.49
11985;BME280;6052;53.246;10.368;2023-06-19T11:25:43;100581.16;;;28.67;59.63
11985;BME280;6052;53.246;10.368;2023-06-19T11:28:14;100579.34;;;28.74;58.68
11985;BME280;6052;53.246;10.368;2023-06-19T11:30:56;100572.88;;;28.67;59.63
11985;BME280;6052;53.246;10.368;2023-06-19T11:33:26;100568.94;;;28.68;57.65
11985;BME280;6052;53.246;10.368;2023-06-19T11:36:02;100571.91;;;28.94;57.73
11985;BME280;6052;53.246;10.368;2023-06-19T11:38:31;100571.16;;;28.97;58.37
11985;BME280;6052;53.246;10.368;2023-06-19T11:41:01;100577.84;;;29.11;57.68
11985;BME280;6052;53.246;10.368;2023-06-19T11:43:31;100580.63;;;28.96;57.29
11985;BME280;6052;53.246;10.368;2023-06-19T11:46:02;100581.72;;;28.91;56.99
11985;BME280;6052;53.246;10.368;2023-06-19T11:48:32;100577.81;;;28.92;57.60
11985;BME280;6052;53.246;10.368;2023-06-19T11:51:04;100574.91;;;28.85;57.32
11985;BME280;6052;53.246;10.368;2023-06-19T11:53:34;100572.91;;;29.20;58.14
11985;BME280;6052;53.246;10.368;2023-06-19T11:56:04;100574.22;;;28.92;57.68
11985;BME280;6052;53.246;10.368;2023-06-19T11:58:33;100573.31;;;29.03;56.80
11985;BME280;6052;53.246;10.368;2023-06-19T12:01:03;100566.47;;;28.97;57.60
11985;BME280;6052;53.246;10.368;2023-06-19T12:03:32;100555.56;;;29.04;57.70
11985;BME280;6052;53.246;10.368;2023-06-19T12:06:09;100557.97;;;29.06;57.72
11985;BME280;6052;53.246;10.368;2023-06-19T12:08:39;100569.84;;;29.06;57.29
11985;BME280;6052;53.246;10.368;2023-06-19T12:11:08;100569.69;;;29.18;57.37
11985;BME280;6052;53.246;10.368;2023-06-19T12:13:40;100565.03;;;29.03;57.67
11985;BME280;6052;53.246;10.368;2023-06-19T12:16:10;100573.03;;;29.08;58.44
11985;BME280;6052;53.246;10.368;2023-06-19T12:18:40;100575.75;;;28.89;58.99
11985;BME280;6052;53.246;10.368;2023-06-19T12:21:12;100576.59;;;29.09;58.37
11985;BME280;6052;53.246;10.368;2023-06-19T12:24:00;100574.63;;;29.28;58.87
11985;BME280;6052;53.246;10.368;2023-06-19T12:26:29;100577.69;;;29.23;59.14
11985;BME280;6052;53.246;10.368;2023-06-19T12:29:04;100567.38;;;29.39;58.73
11985;BME280;6052;53.246;10.368;2023-06-19T12:31:34;100579.09;;;29.33;58.56
11985;BME280;6052;53.246;10.368;2023-06-19T12:34:04;100569.19;;;29.32;57.93
11985;BME280;6052;53.246;10.368;2023-06-19T12:36:39;100574.28;;;29.11;57.67
11985;BME280;6052;53.246;10.368;2023-06-19T12:39:08;100573.03;;;29.46;59.32
11985;BME280;6052;53.246;10.368;2023-06-19T12:41:42;100565.38;;;29.40;58.87
11985;BME280;6052;53.246;10.368;2023-06-19T12:44:12;100559.78;;;29.55;59.68
11985;BME280;6052;53.246;10.368;2023-06-19T12:46:41;100577.09;;;29.52;58.75
11985;BME280;6052;53.246;10.368;2023-06-19T12:49:11;100576.16;;;29.26;58.09
11985;BME280;6052;53.246;10.368;2023-06-19T12:51:43;100579.22;;;29.02;58.88
11985;BME280;6052;53.246;10.368;2023-06-19T12:54:15;100576.84;;;29.19;58.93
11985;BME280;6052;53.246;10.368;2023-06-19T12:56:45;100589.34;;;29.32;59.77
11985;BME280;6052;53.246;10.368;2023-06-19T12:59:14;100585.03;;;29.35;58.93
11985;BME280;6052;53.246;10.368;2023-06-19T13:01:44;100573.31;;;29.22;58.45
11985;BME280;6052;53.246;10.368;2023-06-19T13:04:14;100588.56;;;29.32;59.19
11985;BME280;6052;53.246;10.368;2023-06-19T13:06:46;100587.50;;;29.21;60.19
11985;BME280;6052;53.246;10.368;2023-06-19T13:09:15;100579.22;;;29.40;59.86